Time;durP1;ratioP1;P1;durP2;ratioP2;P2;SDS_P1;SDS_P2;PMS_P1;PMS_P2;Temp;Humidity;BMP_temperature;BMP_pressure;BME280_temperature;BME280_humidity;BME280_pressure;Samples;Min_cycle;Max_cycle;Signal;HPM_P1;HPM_P2
2021/11/16 00:01:57;;;;;;;0.00;0.00;;;;;;;7.80;75.47;100162.09;5109675;28;20036;-74
2021/11/16 00:04:22;;;;;;;0.03;0.03;;;;;;;7.83;76.00;100164.28;5109622;28;20100;-75
2021/11/16 00:06:52;;;;;;;0.00;0.00;;;;;;;7.81;75.68;100154.91;5106269;28;20307;-77
2021/11/16 00:09:18;;;;;;;0.00;0.00;;;;;;;7.83;75.71;100164.28;5108756;28;20042;-79
2021/11/16 00:11:44;;;;;;;0.00;0.00;;;;;;;7.80;75.68;100158.59;5105543;28;20027;-73
2021/11/16 00:14:10;;;;;;;0.00;0.00;;;;;;;7.83;76.12;100158.97;5111520;28;20398;-74
2021/11/16 00:16:39;;;;;;;0.00;0.00;;;;;;;7.79;75.95;100141.03;5112505;28;20036;-72
2021/11/16 00:19:09;;;;;;;0.00;0.00;;;;;;;7.79;75.94;100151.69;5111989;28;20038;-75
2021/11/16 00:21:34;;;;;;;0.10;0.10;;;;;;;7.82;75.47;100152.03;5111302;28;20028;-75
2021/11/16 00:24:07;;;;;;;0.00;0.00;;;;;;;7.84;75.94;100152.59;5111495;28;20497;-75
2021/11/16 00:26:32;;;;;;;0.35;0.32;;;;;;;7.79;75.97;100147.16;5114121;28;20027;-75
2021/11/16 00:28:57;;;;;;;0.15;0.15;;;;;;;7.81;75.63;100144.25;5114118;28;20475;-75
2021/11/16 00:31:23;;;;;;;0.00;0.00;;;;;;;7.68;75.91;100130.13;5114180;28;20034;-74
2021/11/16 00:33:49;;;;;;;0.00;0.00;;;;;;;7.68;76.21;100135.44;5113620;28;20020;-74
2021/11/16 00:36:15;;;;;;;0.43;0.43;;;;;;;7.70;75.98;100129.88;5112019;28;20031;-74
2021/11/16 00:38:41;;;;;;;0.00;0.00;;;;;;;7.64;76.32;100122.81;5113534;28;20038;-73
2021/11/16 00:41:07;;;;;;;0.00;0.00;;;;;;;7.69;76.08;100133.63;5112586;28;20031;-76
2021/11/16 00:43:33;;;;;;;0.00;0.00;;;;;;;7.68;76.76;100129.31;5112065;28;20024;-78
2021/11/16 00:45:59;;;;;;;1.75;0.90;;;;;;;7.59;76.02;100123.53;5112311;28;20039;-75
2021/11/16 00:48:25;;;;;;;0.13;0.13;;;;;;;7.64;75.88;100134.28;5112488;28;20119;-77
2021/11/16 00:50:56;;;;;;;0.08;0.08;;;;;;;7.63;76.14;100137.16;5112237;28;20062;-73
2021/11/16 00:53:23;;;;;;;0.00;0.00;;;;;;;7.62;76.69;100131.03;5113713;28;20028;-75
2021/11/16 00:55:49;;;;;;;0.10;0.10;;;;;;;7.61;76.67;100129.41;5112101;28;20015;-75
2021/11/16 00:58:15;;;;;;;0.22;0.22;;;;;;;7.66;76.63;100139.38;5094983;28;20028;-76
2021/11/16 01:00:42;;;;;;;0.32;0.32;;;;;;;7.64;76.45;100136.13;5091847;28;20027;-75
2021/11/16 01:03:07;;;;;;;0.05;0.05;;;;;;;7.64;76.64;100136.13;5091984;28;20020;-78
2021/11/16 01:05:33;;;;;;;0.93;0.93;;;;;;;7.62;76.61;100135.56;5091726;28;20111;-80
2021/11/16 01:07:58;;;;;;;0.05;0.05;;;;;;;7.62;76.44;100136.38;5091637;28;20115;-81
2021/11/16 01:10:25;;;;;;;0.82;0.82;;;;;;;7.69;76.96;100142.41;5096283;28;20015;-84
2021/11/16 01:12:50;;;;;;;0.10;0.10;;;;;;;7.67;76.90;100133.81;5112151;28;20104;-83
2021/11/16 01:15:17;;;;;;;0.22;0.22;;;;;;;7.71;76.41;100134.16;5112262;28;20020;-82
2021/11/16 01:17:43;;;;;;;0.00;0.00;;;;;;;7.74;76.81;100132.91;5111768;28;20031;-82
2021/11/16 01:20:11;;;;;;;0.00;0.00;;;;;;;7.80;76.63;100131.97;5112020;28;20122;-80
2021/11/16 01:22:37;;;;;;;0.00;0.00;;;;;;;7.80;75.66;100135.47;5109047;28;20063;-77
2021/11/16 01:25:05;;;;;;;0.00;0.00;;;;;;;7.77;75.90;100121.81;5111543;28;20062;-74
2021/11/16 01:27:34;;;;;;;1.65;1.30;;;;;;;7.76;76.53;100114.84;5106726;28;20473;-73
2021/11/16 01:30:02;;;;;;;0.00;0.00;;;;;;;7.82;76.19;100136.06;5097367;28;20119;-74
2021/11/16 01:32:39;;;;;;;0.00;0.00;;;;;;;7.81;76.03;100138.94;5091081;28;20480;-74
2021/11/16 01:35:06;;;;;;;0.00;0.00;;;;;;;7.83;76.27;100139.53;5092644;28;20050;-76
2021/11/16 01:37:32;;;;;;;0.00;0.00;;;;;;;7.83;76.13;100134.19;5090835;28;20475;-74
2021/11/16 01:39:57;;;;;;;0.10;0.10;;;;;;;7.85;75.75;100143.56;5092126;28;20059;-74
2021/11/16 01:42:23;;;;;;;0.00;0.00;;;;;;;7.80;75.96;100134.63;5094664;28;20134;-74
2021/11/16 01:44:50;;;;;;;0.10;0.10;;;;;;;7.76;76.36;100134.28;5108017;28;20108;-74
2021/11/16 01:47:16;;;;;;;0.00;0.00;;;;;;;7.72;76.28;100125.16;5111003;28;20061;-73
2021/11/16 01:49:42;;;;;;;0.10;0.10;;;;;;;7.81;76.67;100136.25;5112448;28;20393;-74
2021/11/16 01:52:09;;;;;;;3.60;0.45;;;;;;;7.79;76.48;100130.38;5106297;28;20024;-74
2021/11/16 01:54:36;;;;;;;0.10;0.10;;;;;;;7.79;76.51;100127.72;5090531;28;20024;-73
2021/11/16 01:57:01;;;;;;;0.00;0.00;;;;;;;7.79;76.37;100133.03;5091286;28;20038;-74
2021/11/16 01:59:27;;;;;;;0.00;0.00;;;;;;;7.86;76.20;100141.72;5111139;28;20027;-76
2021/11/16 02:01:55;;;;;;;0.20;0.20;;;;;;;7.88;75.58;100141.50;5111114;28;20038;-76
2021/11/16 02:04:22;;;;;;;1.27;1.20;;;;;;;7.88;75.59;100136.97;5110498;28;20055;-74
2021/11/16 02:06:49;;;;;;;0.00;0.00;;;;;;;7.82;75.59;100132.56;5111183;28;20068;-74
2021/11/16 02:09:16;;;;;;;0.00;0.00;;;;;;;7.86;76.30;100136.41;5112121;28;20124;-73
2021/11/16 02:11:42;;;;;;;0.00;0.00;;;;;;;7.85;75.94;100130.25;5111591;28;20065;-73
2021/11/16 02:14:14;;;;;;;1.05;1.05;;;;;;;7.83;75.77;100121.66;5110104;28;20068;-73
2021/11/16 02:16:41;;;;;;;0.00;0.00;;;;;;;7.83;75.87;100119.00;5091803;28;20036;-73
2021/11/16 02:19:10;;;;;;;0.00;0.00;;;;;;;7.85;75.42;100111.59;5100685;28;20184;-72
2021/11/16 02:21:36;;;;;;;0.00;0.00;;;;;;;7.98;75.29;100136.38;5111834;28;20030;-75
2021/11/16 02:24:03;;;;;;;0.00;0.00;;;;;;;7.98;75.53;100117.75;5111993;28;20491;-74
2021/11/16 02:26:30;;;;;;;0.00;0.00;;;;;;;7.99;75.24;100122.03;5111780;28;20111;-75
2021/11/16 02:28:56;;;;;;;0.00;0.00;;;;;;;8.03;75.46;100123.19;5110546;28;20023;-74
2021/11/16 02:31:22;;;;;;;0.70;0.70;;;;;;;8.06;75.36;100124.59;5110626;28;20031;-76
2021/11/16 02:33:47;;;;;;;0.00;0.00;;;;;;;7.99;75.16;100114.03;5111431;28;20036;-76
2021/11/16 02:36:13;;;;;;;0.00;0.00;;;;;;;7.97;74.86;100110.78;5108804;28;20028;-73
2021/11/16 02:38:40;;;;;;;0.00;0.00;;;;;;;8.03;75.02;100123.19;5109752;28;20435;-75
2021/11/16 02:41:07;;;;;;;0.00;0.00;;;;;;;8.01;74.46;100106.63;5110556;28;20027;-74
2021/11/16 02:43:34;;;;;;;0.32;0.32;;;;;;;8.05;74.52;100118.44;5110215;28;20130;-81
2021/11/16 02:46:02;;;;;;;0.00;0.00;;;;;;;8.06;74.95;100116.59;5106772;28;20048;-76
2021/11/16 02:48:30;;;;;;;0.00;0.00;;;;;;;7.99;74.30;100103.38;5110037;28;20394;-76
2021/11/16 02:50:57;;;;;;;0.00;0.00;;;;;;;8.04;73.90;100108.03;5109764;28;20039;-76
2021/11/16 02:53:24;;;;;;;0.00;0.00;;;;;;;8.07;74.34;100108.38;5110358;28;20031;-73
2021/11/16 02:55:50;;;;;;;0.00;0.00;;;;;;;8.02;74.08;100113.59;5109243;28;20040;-73
2021/11/16 02:58:17;;;;;;;0.00;0.00;;;;;;;7.96;74.29;100107.31;5109735;28;20096;-74
2021/11/16 03:00:47;;;;;;;0.00;0.00;;;;;;;7.93;74.26;100104.31;5109968;28;20028;-74
2021/11/16 03:03:13;;;;;;;0.00;0.00;;;;;;;7.90;74.25;100102.94;5110222;28;20066;-73
2021/11/16 03:05:38;;;;;;;0.00;0.00;;;;;;;7.94;74.88;100108.59;5111068;28;20031;-75
2021/11/16 03:08:12;;;;;;;0.28;0.28;;;;;;;7.93;74.38;100099.00;5111321;28;20027;-75
2021/11/16 03:10:37;;;;;;;0.25;0.25;;;;;;;7.98;74.32;100105.25;5109921;28;20035;-75
2021/11/16 03:13:03;;;;;;;0.05;0.05;;;;;;;7.96;74.12;100107.31;5110189;28;20028;-75
2021/11/16 03:15:28;;;;;;;0.20;0.20;;;;;;;7.93;74.03;100096.31;5109325;28;20387;-75
2021/11/16 03:17:54;;;;;;;0.00;0.00;;;;;;;7.88;74.26;100098.88;5109278;28;20092;-75
2021/11/16 03:20:20;;;;;;;0.00;0.00;;;;;;;7.85;74.29;100102.81;5110167;28;20031;-76
2021/11/16 03:22:51;;;;;;;0.00;0.00;;;;;;;7.88;74.44;100113.00;5109586;28;20479;-74
2021/11/16 03:25:22;;;;;;;0.35;0.25;;;;;;;7.85;74.50;100116.13;5110014;28;20470;-74
2021/11/16 03:27:54;;;;;;;0.00;0.00;;;;;;;7.84;74.44;100109.97;5111013;28;20036;-75
2021/11/16 03:30:20;;;;;;;0.00;0.00;;;;;;;7.84;74.32;100109.19;5110095;28;20490;-76
2021/11/16 03:32:46;;;;;;;0.00;0.00;;;;;;;7.89;73.96;100117.28;5111153;28;20031;-73
2021/11/16 03:35:12;;;;;;;0.00;0.00;;;;;;;7.81;74.34;100110.47;5104110;28;20024;-73
2021/11/16 03:37:43;;;;;;;1.65;0.45;;;;;;;7.89;74.25;100117.28;5109713;28;20034;-74
2021/11/16 03:40:09;;;;;;;0.47;0.47;;;;;;;7.81;74.36;100107.81;5111219;28;20066;-73
2021/11/16 03:42:40;;;;;;;0.00;0.00;;;;;;;7.74;75.04;100095.63;5110918;28;20027;-73
2021/11/16 03:45:06;;;;;;;0.00;0.00;;;;;;;7.81;74.88;100114.97;5110622;28;20036;-73
2021/11/16 03:47:31;;;;;;;0.20;0.20;;;;;;;7.75;75.12;100107.91;5110749;28;20146;-75
2021/11/16 03:49:57;;;;;;;0.32;0.32;;;;;;;7.78;75.89;100123.44;5094480;28;20081;-74
2021/11/16 03:52:25;;;;;;;0.10;0.10;;;;;;;7.77;75.39;100117.28;5093310;28;20100;-72
2021/11/16 03:54:51;;;;;;;0.05;0.05;;;;;;;7.80;75.67;100118.66;5093022;28;20131;-75
2021/11/16 03:57:16;;;;;;;0.10;0.10;;;;;;;7.71;75.62;100107.53;5093167;28;20467;-72
2021/11/16 03:59:43;;;;;;;0.10;0.10;;;;;;;7.74;76.50;100120.41;5094166;28;20052;-73
2021/11/16 04:02:09;;;;;;;0.40;0.40;;;;;;;7.72;76.15;100121.69;5112891;28;20031;-73
2021/11/16 04:04:34;;;;;;;0.00;0.00;;;;;;;7.71;76.75;100128.84;5113134;28;20055;-74
2021/11/16 04:07:00;;;;;;;0.13;0.13;;;;;;;7.65;76.95;100117.28;5113249;28;20031;-73
2021/11/16 04:09:26;;;;;;;0.28;0.28;;;;;;;7.64;76.86;100117.50;5114455;27;20096;-74
2021/11/16 04:11:51;;;;;;;0.30;0.30;;;;;;;7.59;77.13;100109.38;5113077;28;20028;-72
2021/11/16 04:14:18;;;;;;;0.45;0.43;;;;;;;7.56;77.02;100105.34;5113302;28;20063;-72
2021/11/16 04:16:43;;;;;;;0.00;0.00;;;;;;;7.56;77.97;100112.53;5112515;28;20031;-74
2021/11/16 04:19:09;;;;;;;0.52;0.52;;;;;;;7.51;77.74;100106.03;5113133;28;20040;-73
2021/11/16 04:21:34;;;;;;;0.00;0.00;;;;;;;7.61;78.07;100117.97;5113674;28;20022;-73
2021/11/16 04:24:00;;;;;;;0.00;0.00;;;;;;;7.59;77.34;100109.38;5114300;28;20215;-74
2021/11/16 04:26:25;;;;;;;0.00;0.00;;;;;;;7.64;77.40;100114.84;5107841;28;20020;-72
2021/11/16 04:28:51;;;;;;;0.38;0.38;;;;;;;7.64;77.45;100112.16;5093604;28;20035;-72
2021/11/16 04:31:17;;;;;;;0.10;0.10;;;;;;;7.62;77.28;100100.97;5093917;28;20027;-72
2021/11/16 04:33:43;;;;;;;0.15;0.15;;;;;;;7.62;76.94;100098.28;5093716;28;20073;-73
2021/11/16 04:36:12;;;;;;;0.00;0.00;;;;;;;7.72;76.97;100105.72;5093777;28;20035;-72
2021/11/16 04:38:37;;;;;;;0.00;0.00;;;;;;;7.77;76.70;100121.81;5098697;28;20024;-73
2021/11/16 04:41:04;;;;;;;0.00;0.00;;;;;;;7.77;77.37;100105.81;5113438;28;20391;-73
2021/11/16 04:43:31;;;;;;;0.00;0.00;;;;;;;7.84;77.31;100115.31;5114248;28;20039;-71
2021/11/16 04:46:04;;;;;;;0.10;0.10;;;;;;;7.85;76.86;100113.47;5112957;28;20189;-70
2021/11/16 04:48:49;;;;;;;0.25;0.25;;;;;;;7.92;76.44;100124.81;5108930;28;20036;-72
2021/11/16 05:04:25;;;;;;;0.00;0.00;;;;;;;8.13;75.81;100114.59;5097118;28;20030;-73
2021/11/16 05:06:53;;;;;;;0.00;0.00;;;;;;;8.17;76.04;100113.91;5112969;28;20438;-70
2021/11/16 05:09:19;;;;;;;0.00;0.00;;;;;;;8.24;76.07;100121.78;5113413;28;20038;-71
2021/11/16 05:11:44;;;;;;;0.00;0.00;;;;;;;8.24;75.50;100119.13;5113045;28;20031;-77
2021/11/16 05:14:10;;;;;;;0.10;0.10;;;;;;;8.23;75.33;100114.84;5112168;28;20146;-73
2021/11/16 05:16:36;;;;;;;0.10;0.10;;;;;;;8.30;75.30;100122.69;5111197;28;20110;-80
2021/11/16 05:19:02;;;;;;;0.00;0.00;;;;;;;8.32;75.21;100123.28;5110583;28;20034;-81
2021/11/16 05:21:27;;;;;;;0.00;0.00;;;;;;;8.26;75.57;100118.88;5108510;28;20036;-72
2021/11/16 05:23:55;;;;;;;0.00;0.00;;;;;;;8.32;75.81;100126.78;5107498;28;20031;-75
2021/11/16 05:26:22;;;;;;;0.00;0.00;;;;;;;8.31;75.42;100125.16;5111408;28;20543;-80
2021/11/16 05:28:48;;;;;;;0.00;0.00;;;;;;;8.29;75.04;100132.56;5111193;28;20040;-75
2021/11/16 05:31:15;;;;;;;0.10;0.10;;;;;;;8.35;75.74;100138.81;5110597;28;20046;-73
2021/11/16 05:33:42;;;;;;;0.00;0.00;;;;;;;8.32;75.40;100141.94;5111069;28;20020;-73
2021/11/16 05:36:08;;;;;;;0.00;0.00;;;;;;;8.29;75.07;100127.22;5112967;28;20440;-75
2021/11/16 05:38:37;;;;;;;0.00;0.00;;;;;;;8.39;75.08;100145.28;5110933;28;20092;-75
2021/11/16 05:41:04;;;;;;;0.10;0.10;;;;;;;8.40;75.06;100140.75;5111515;28;20055;-73
2021/11/16 05:43:32;;;;;;;0.00;0.00;;;;;;;8.44;75.14;100161.38;5111218;28;20029;-74
2021/11/16 05:45:59;;;;;;;1.35;1.02;;;;;;;8.43;74.53;100158.97;5112191;28;20047;-73
2021/11/16 05:48:31;;;;;;;0.00;0.00;;;;;;;8.37;74.73;100149.22;5110958;28;20118;-73
2021/11/16 05:50:56;;;;;;;0.00;0.00;;;;;;;8.44;74.71;100163.25;5111002;28;20060;-74
2021/11/16 05:53:22;;;;;;;0.00;0.00;;;;;;;8.46;74.73;100158.50;5111107;28;20028;-73
2021/11/16 05:55:47;;;;;;;0.00;0.00;;;;;;;8.46;74.01;100158.50;5110681;28;20031;-74
2021/11/16 05:58:15;;;;;;;0.00;0.00;;;;;;;8.45;74.52;100170.22;5111160;28;20555;-75
2021/11/16 06:00:40;;;;;;;0.00;0.00;;;;;;;8.46;74.55;100166.50;5110870;28;20027;-74
2021/11/16 06:03:06;;;;;;;0.00;0.00;;;;;;;8.35;74.31;100157.47;5112237;27;20028;-74
2021/11/16 06:05:32;;;;;;;0.00;0.00;;;;;;;8.46;74.19;100164.66;5110657;28;20035;-75
2021/11/16 06:07:57;;;;;;;0.00;0.00;;;;;;;8.47;74.24;100162.78;5112144;28;20047;-75
2021/11/16 06:10:23;;;;;;;0.00;0.00;;;;;;;8.36;73.58;100150.28;5111083;28;20034;-74
2021/11/16 06:12:48;;;;;;;0.55;0.55;;;;;;;8.45;74.19;100172.88;5112099;28;20020;-74
2021/11/16 06:15:14;;;;;;;0.05;0.05;;;;;;;8.42;74.28;100163.50;5111184;28;20031;-74
2021/11/16 06:17:41;;;;;;;0.00;0.00;;;;;;;8.43;74.46;100156.28;5111587;28;20471;-74
2021/11/16 06:20:08;;;;;;;0.00;0.00;;;;;;;8.43;74.39;100162.41;5110693;28;20402;-74
2021/11/16 06:22:33;;;;;;;0.00;0.00;;;;;;;8.40;74.06;100152.25;5110420;28;20031;-74
2021/11/16 06:24:59;;;;;;;0.00;0.00;;;;;;;8.38;73.96;100151.66;5110607;28;20471;-74
2021/11/16 06:27:24;;;;;;;0.00;0.00;;;;;;;8.45;73.74;100157.69;5110438;28;20059;-74
2021/11/16 06:29:49;;;;;;;0.00;0.00;;;;;;;8.36;73.90;100140.44;5110266;28;20066;-73
2021/11/16 06:32:15;;;;;;;0.00;0.00;;;;;;;8.39;73.34;100134.63;5111543;28;20035;-74
2021/11/16 06:34:40;;;;;;;0.00;0.00;;;;;;;8.52;73.49;100149.59;5110224;28;20036;-75
2021/11/16 06:37:06;;;;;;;0.17;0.17;;;;;;;8.46;73.62;100147.84;5110460;28;20032;-74
2021/11/16 06:39:32;;;;;;;0.00;0.00;;;;;;;8.51;73.43;100158.63;5110108;28;20490;-74
2021/11/16 06:41:59;;;;;;;0.43;0.43;;;;;;;8.34;72.96;100142.53;5110285;28;20019;-74
2021/11/16 06:44:25;;;;;;;0.20;0.20;;;;;;;8.47;73.59;100168.13;5110281;28;20088;-74
2021/11/16 06:46:52;;;;;;;0.00;0.00;;;;;;;8.49;73.50;100168.72;5109871;28;20410;-75
2021/11/16 06:49:18;;;;;;;0.00;0.00;;;;;;;8.51;73.58;100176.47;5111524;28;20027;-74
2021/11/16 06:51:46;;;;;;;0.00;0.00;;;;;;;8.51;73.71;100173.81;5111119;28;20461;-74
2021/11/16 06:54:27;;;;;;;0.25;0.25;;;;;;;8.52;73.64;100162.94;5110180;28;20405;-75
2021/11/16 06:56:53;;;;;;;0.00;0.00;;;;;;;8.47;74.14;100152.97;5110002;28;20413;-74
2021/11/16 06:59:23;;;;;;;0.20;0.20;;;;;;;8.55;74.20;100165.13;5110195;28;20047;-74
2021/11/16 07:01:49;;;;;;;0.20;0.20;;;;;;;8.53;74.26;100167.19;5111238;28;20119;-74
2021/11/16 07:04:14;;;;;;;0.00;0.00;;;;;;;8.47;74.45;100154.81;5110158;28;20042;-74
2021/11/16 07:06:46;;;;;;;0.00;0.00;;;;;;;8.61;74.28;100185.50;5111135;28;20023;-74
2021/11/16 07:09:14;;;;;;;0.00;0.00;;;;;;;8.60;73.93;100183.88;5110017;28;20027;-74
2021/11/16 07:11:49;;;;;;;0.00;0.00;;;;;;;8.57;74.33;100179.03;5109901;28;20027;-74
2021/11/16 07:14:17;;;;;;;0.00;0.00;;;;;;;8.58;74.45;100177.16;5110016;28;20498;-74
2021/11/16 07:17:04;;;;;;;0.00;0.00;;;;;;;8.58;73.83;100175.31;5109848;28;20028;-74
2021/11/16 07:19:40;;;;;;;0.00;0.00;;;;;;;8.58;74.25;100174.50;5110111;28;20065;-75
2021/11/16 07:22:10;;;;;;;0.00;0.00;;;;;;;8.57;74.54;100173.69;5112465;28;20526;-74
2021/11/16 07:24:41;;;;;;;0.00;0.00;;;;;;;8.55;74.59;100174.97;5113888;28;20088;-73
2021/11/16 07:27:07;;;;;;;0.00;0.00;;;;;;;8.58;74.67;100174.50;5113998;28;20024;-74
2021/11/16 07:29:41;;;;;;;0.00;0.00;;;;;;;8.59;74.92;100168.94;5114090;28;20035;-73
2021/11/16 07:32:11;;;;;;;0.00;0.00;;;;;;;8.61;74.92;100176.69;5114003;28;20031;-74
2021/11/16 07:34:41;;;;;;;1.00;1.00;;;;;;;8.55;74.76;100177.66;5113720;28;20467;-73
2021/11/16 07:37:13;;;;;;;0.00;0.00;;;;;;;8.54;74.93;100168.03;5113931;28;20031;-73
2021/11/16 07:39:53;;;;;;;0.10;0.10;;;;;;;8.50;74.81;100167.69;5113583;28;20578;-73
2021/11/16 07:42:21;;;;;;;0.20;0.20;;;;;;;8.53;75.25;100172.53;5113724;28;20023;-74
2021/11/16 07:45:09;;;;;;;0.10;0.10;;;;;;;8.50;75.48;100175.69;5114224;28;20080;-74
2021/11/16 07:47:35;;;;;;;0.00;0.00;;;;;;;8.48;75.82;100183.09;5113387;28;20032;-74
2021/11/16 07:50:01;;;;;;;0.75;0.75;;;;;;;8.43;76.06;100183.75;5115012;28;20028;-73
2021/11/16 07:52:28;;;;;;;2.75;1.00;;;;;;;8.40;76.99;100184.22;5113631;28;20069;-74
2021/11/16 07:54:53;;;;;;;0.55;0.20;;;;;;;8.35;76.96;100184.13;5113339;28;20047;-74
2021/11/16 07:57:18;;;;;;;0.00;0.00;;;;;;;8.27;77.13;100168.47;5113522;28;20432;-74
2021/11/16 07:59:44;;;;;;;1.95;0.50;;;;;;;8.34;77.74;100187.84;5114877;28;20024;-74
2021/11/16 08:02:20;;;;;;;0.35;0.35;;;;;;;8.31;78.49;100190.94;5113429;28;20020;-74
2021/11/16 08:05:00;;;;;;;0.35;0.35;;;;;;;8.32;77.81;100176.59;5113286;28;20069;-74
2021/11/16 08:07:47;;;;;;;0.10;0.10;;;;;;;8.31;78.17;100174.97;5114665;28;20446;-75
2021/11/16 08:10:21;;;;;;;0.00;0.00;;;;;;;8.34;78.01;100172.63;5113318;28;20035;-74
2021/11/16 08:12:48;;;;;;;0.00;0.00;;;;;;;8.35;77.71;100181.47;5114358;28;20034;-75
2021/11/16 08:15:14;;;;;;;0.03;0.03;;;;;;;8.33;78.04;100159.56;5113272;28;20405;-74
2021/11/16 08:17:40;;;;;;;0.32;0.22;;;;;;;8.43;78.10;100174.94;5114532;28;20024;-74
2021/11/16 08:20:10;;;;;;;1.05;1.00;;;;;;;8.46;78.06;100183.31;5114344;28;20031;-74
2021/11/16 08:22:36;;;;;;;0.00;0.00;;;;;;;8.43;77.55;100170.41;5112490;28;20020;-74
2021/11/16 08:25:04;;;;;;;1.02;0.80;;;;;;;8.47;77.93;100170.78;5114320;27;20035;-74
2021/11/16 08:27:36;;;;;;;0.00;0.00;;;;;;;8.62;77.55;100194.31;5114223;28;20422;-74
2021/11/16 08:30:10;;;;;;;0.00;0.00;;;;;;;8.61;77.67;100174.84;5114019;27;20035;-74
2021/11/16 08:32:39;;;;;;;0.00;0.00;;;;;;;8.73;77.41;100177.47;5112332;28;20016;-74
2021/11/16 08:35:21;;;;;;;0.20;0.20;;;;;;;8.69;77.73;100173.69;5111669;28;20494;-74
2021/11/16 08:37:47;;;;;;;0.00;0.00;;;;;;;8.81;77.31;100185.13;5114081;28;20024;-73
2021/11/16 08:40:19;;;;;;;0.25;0.25;;;;;;;8.86;76.70;100189.75;5113991;27;20035;-74
2021/11/16 08:42:55;;;;;;;0.13;0.13;;;;;;;8.80;77.29;100180.00;5113436;28;20035;-74
2021/11/16 08:45:27;;;;;;;0.17;0.17;;;;;;;8.93;77.27;100176.28;5112278;28;20048;-73
2021/11/16 08:48:07;;;;;;;0.47;0.47;;;;;;;8.94;77.62;100185.91;5113823;28;20110;-74
2021/11/16 08:50:37;;;;;;;0.75;0.75;;;;;;;8.97;77.05;100185.41;5113612;28;20492;-75
2021/11/16 08:53:09;;;;;;;0.00;0.00;;;;;;;8.97;77.82;100175.56;5113553;28;20027;-75
2021/11/16 08:55:37;;;;;;;0.00;0.00;;;;;;;9.01;77.68;100165.22;5112393;28;20055;-75
2021/11/16 08:58:06;;;;;;;0.00;0.00;;;;;;;9.03;77.78;100163.13;5112257;28;20031;-75
2021/11/16 09:00:37;;;;;;;0.95;0.95;;;;;;;9.07;78.00;100168.78;5113545;28;20031;-74
2021/11/16 09:03:07;;;;;;;0.10;0.10;;;;;;;9.10;78.04;100168.31;5112126;28;20051;-75
2021/11/16 09:05:41;;;;;;;0.00;0.00;;;;;;;9.01;78.18;100153.72;5113544;28;20034;-74
2021/11/16 09:08:14;;;;;;;0.30;0.30;;;;;;;9.10;78.43;100157.66;5111995;28;20020;-73
2021/11/16 09:10:43;;;;;;;0.22;0.22;;;;;;;9.18;78.22;100164.44;5111539;28;20062;-74
2021/11/16 09:13:09;;;;;;;;;;;;;;;9.18;78.16;100156.44;5112535;28;20024;-74
2021/11/16 09:15:52;;;;;;;1.38;1.27;;;;;;;9.18;78.02;100151.94;5113395;28;19915;-76
2021/11/16 09:18:30;;;;;;;0.25;0.25;;;;;;;9.23;77.75;100153.88;5113075;28;20042;-75
2021/11/16 09:21:14;;;;;;;0.20;0.20;;;;;;;9.24;78.23;100148.31;5113292;27;20028;-75
2021/11/16 09:24:03;;;;;;;0.20;0.20;;;;;;;9.24;77.50;100142.97;5112797;28;20088;-74
2021/11/16 09:29:01;;;;;;;2.72;1.00;;;;;;;9.17;78.38;100126.28;5112771;28;20059;-75
2021/11/16 09:31:48;;;;;;;0.10;0.10;;;;;;;9.31;78.15;100136.66;5111609;28;20059;-74
2021/11/16 09:34:14;;;;;;;0.43;0.43;;;;;;;9.33;78.03;100138.03;5111339;28;20038;-73
2021/11/16 09:36:50;;;;;;;0.75;0.75;;;;;;;9.35;79.04;100109.25;5112705;28;20027;-74
2021/11/16 09:39:19;;;;;;;0.82;0.82;;;;;;;9.51;78.18;100118.31;5111535;28;20031;-74
2021/11/16 09:41:47;;;;;;;0.63;0.63;;;;;;;9.61;77.78;100121.16;5112294;28;20024;-74
2021/11/16 09:44:22;;;;;;;0.10;0.10;;;;;;;9.68;78.33;100096.97;5111273;28;20023;-75
2021/11/16 09:46:53;;;;;;;2.05;1.48;;;;;;;9.84;77.32;100116.69;5110983;28;20559;-76
2021/11/16 09:49:35;;;;;;;1.15;1.13;;;;;;;9.92;76.84;100123.47;5110925;28;20040;-74
2021/11/16 09:52:19;;;;;;;2.35;1.73;;;;;;;9.94;76.20;100119.50;5112885;28;20020;-75
2021/11/16 09:54:53;;;;;;;0.75;0.75;;;;;;;9.98;76.96;100113.69;5112159;28;20069;-75
2021/11/16 09:57:29;;;;;;;0.93;0.93;;;;;;;9.94;76.10;100095.44;5111111;28;20115;-74
2021/11/16 10:00:33;;;;;;;0.35;0.35;;;;;;;10.03;75.60;100103.88;5112225;28;20069;-74
2021/11/16 10:03:22;;;;;;;0.28;0.28;;;;;;;10.01;76.03;100107.84;5112234;28;20019;-74
2021/11/16 10:05:58;;;;;;;0.17;0.17;;;;;;;9.99;76.43;100096.59;5110371;28;20040;-74
2021/11/16 10:08:26;;;;;;;0.52;0.52;;;;;;;9.98;77.08;100089.63;5111054;28;20058;-75
2021/11/16 10:10:54;;;;;;;0.38;0.38;;;;;;;10.03;77.69;100095.03;5112050;28;20054;-75
2021/11/16 10:13:26;;;;;;;0.13;0.13;;;;;;;10.02;77.49;100077.38;5110929;28;20458;-75
2021/11/16 10:15:56;;;;;;;0.13;0.13;;;;;;;10.17;76.72;100087.50;5110474;28;20498;-75
2021/11/16 10:18:24;;;;;;;1.30;0.73;;;;;;;10.24;76.69;100080.06;5110754;28;20038;-75
2021/11/16 10:20:51;;;;;;;0.70;0.70;;;;;;;10.35;76.42;100070.31;5110605;28;20483;-74
2021/11/16 10:23:32;;;;;;;0.30;0.30;;;;;;;10.41;75.52;100078.19;5111718;28;20039;-74
2021/11/16 10:25:59;;;;;;;0.77;0.77;;;;;;;10.44;75.88;100074.22;5110384;28;20023;-74
2021/11/16 10:28:25;;;;;;;0.80;0.80;;;;;;;10.37;75.21;100053.00;5112175;28;20062;-75
2021/11/16 10:30:58;;;;;;;0.00;0.00;;;;;;;10.51;75.64;100065.97;5110445;28;20051;-75
2021/11/16 10:33:39;;;;;;;1.08;0.75;;;;;;;10.57;75.13;100073.03;5111706;28;20051;-75
2021/11/16 10:36:08;;;;;;;0.00;0.00;;;;;;;10.59;75.02;100070.91;5110590;28;20481;-74
2021/11/16 10:38:36;;;;;;;0.00;0.00;;;;;;;10.61;74.84;100044.72;5110427;28;20086;-75
2021/11/16 10:41:04;;;;;;;;;;;;;;;10.60;75.01;100056.47;5110497;28;20114;-74
2021/11/16 10:43:38;;;;;;;0.80;0.73;;;;;;;10.55;74.99;100048.41;5111773;28;19908;-73
2021/11/16 10:46:06;;;;;;;1.02;1.00;;;;;;;10.51;75.43;100052.59;5110041;28;20047;-75
2021/11/16 10:48:32;;;;;;;;;;;;;;;10.49;74.98;100052.06;5111749;28;20035;-75
2021/11/16 10:50:57;;;;;;;1.05;1.05;;;;;;;10.44;75.73;100041.31;5110138;28;20006;-75
2021/11/16 10:53:26;;;;;;;3.78;1.13;;;;;;;10.51;75.78;100048.09;5110260;28;20394;-74
2021/11/16 10:56:00;;;;;;;0.52;0.52;;;;;;;10.50;75.21;100038.44;5109961;28;20036;-74
2021/11/16 10:58:39;;;;;;;0.82;0.82;;;;;;;10.52;75.77;100047.03;5109684;28;20031;-75
2021/11/16 11:01:10;;;;;;;0.22;0.22;;;;;;;10.55;75.89;100046.50;5111334;28;20043;-74
2021/11/16 11:03:42;;;;;;;0.03;0.03;;;;;;;10.49;75.41;100028.00;5110021;28;20028;-74
2021/11/16 11:06:14;;;;;;;0.15;0.15;;;;;;;10.53;75.42;100042.47;5110055;28;20123;-76
2021/11/16 11:08:51;;;;;;;0.20;0.20;;;;;;;10.53;75.15;100029.09;5111113;28;20540;-74
2021/11/16 11:11:34;;;;;;;1.10;1.02;;;;;;;10.56;75.05;100025.94;5109741;28;20085;-75
2021/11/16 11:14:12;;;;;;;0.10;0.10;;;;;;;10.48;75.24;100005.78;5109828;28;20027;-75
2021/11/16 11:16:44;;;;;;;0.70;0.70;;;;;;;10.61;74.54;100020.63;5109860;28;20024;-75
2021/11/16 11:19:12;;;;;;;0.08;0.08;;;;;;;10.62;73.98;100016.09;5109984;28;20035;-74
2021/11/16 11:21:42;;;;;;;0.10;0.10;;;;;;;10.61;74.17;100019.81;5109749;28;20028;-74
2021/11/16 11:24:21;;;;;;;0.32;0.30;;;;;;;10.54;74.82;100003.97;5111232;28;20028;-75
2021/11/16 11:26:55;;;;;;;0.05;0.05;;;;;;;10.54;75.01;99991.41;5110671;28;20106;-75
2021/11/16 11:29:39;;;;;;;0.43;0.43;;;;;;;10.73;74.74;100007.13;5111135;28;20088;-75
2021/11/16 11:32:08;;;;;;;0.05;0.05;;;;;;;10.81;74.33;100008.53;5109890;28;20034;-74
2021/11/16 11:35:02;;;;;;;0.55;0.55;;;;;;;10.80;74.28;99993.53;5111048;28;20035;-75
2021/11/16 11:37:29;;;;;;;0.13;0.13;;;;;;;10.87;74.01;100002.94;5105327;28;20031;-75
2021/11/16 11:39:56;;;;;;;4.85;2.83;;;;;;;10.89;73.98;100008.06;5111183;28;20498;-74
2021/11/16 11:42:22;;;;;;;0.10;0.10;;;;;;;10.84;73.47;100011.50;5110927;28;20024;-74
2021/11/16 11:44:58;;;;;;;0.03;0.03;;;;;;;10.84;73.29;100003.47;5109271;28;20043;-74
2021/11/16 11:47:30;;;;;;;0.10;0.10;;;;;;;10.86;73.54;100005.88;5109732;28;20058;-75
2021/11/16 11:49:57;;;;;;;0.00;0.00;;;;;;;10.82;73.99;100004.78;5111360;28;20098;-75
2021/11/16 11:52:23;;;;;;;0.08;0.08;;;;;;;10.81;73.80;100003.97;5109725;28;20034;-75
2021/11/16 11:54:48;;;;;;;1.02;0.63;;;;;;;10.77;74.10;99991.38;5110795;28;20024;-75
2021/11/16 11:57:14;;;;;;;0.00;0.00;;;;;;;10.82;73.65;100004.78;5110927;28;20115;-77